Time;durP1;ratioP1;P1;durP2;ratioP2;P2;SDS_P1;SDS_P2;PMS_P1;PMS_P2;Temp;Humidity;BMP_temperature;BMP_pressure;BME280_temperature;BME280_humidity;BME280_pressure;Samples;Min_cycle;Max_cycle;Signal;HPM_P1;HPM_P2
2021/06/22 00:00:33;;;;;;;18.90;3.55;;;24.30;49.00;;;;;;6071539;23;20107;-72
2021/06/22 00:02:59;;;;;;;18.80;3.83;;;24.20;49.00;;;;;;6047517;23;20040;-72
2021/06/22 00:05:27;;;;;;;22.25;4.85;;;24.30;49.30;;;;;;6095543;23;20006;-72
2021/06/22 00:07:56;;;;;;;15.50;3.88;;;24.30;49.30;;;;;;6071407;23;20025;-72
2021/06/22 00:10:42;;;;;;;16.35;3.97;;;24.30;49.30;;;;;;6095559;23;20093;-72
2021/06/22 00:13:08;;;;;;;10.27;3.72;;;24.20;49.40;;;;;;6096969;23;20019;-72
2021/06/22 00:15:35;;;;;;;13.75;4.00;;;24.10;49.90;;;;;;6071541;23;20021;-72
2021/06/22 00:18:01;;;;;;;17.42;3.72;;;24.10;50.10;;;;;;6095240;23;20061;-72
2021/06/22 00:20:27;;;;;;;19.27;3.92;;;24.10;50.20;;;;;;6047348;23;20018;-72
2021/06/22 00:22:55;;;;;;;16.08;4.13;;;24.10;50.40;;;;;;6096608;23;20014;-72
2021/06/22 00:25:24;;;;;;;11.52;3.90;;;24.10;50.30;;;;;;6095391;23;20022;-72
2021/06/22 00:27:51;;;;;;;18.95;3.42;;;24.10;50.40;;;;;;6095223;23;20024;-72
2021/06/22 00:30:19;;;;;;;13.75;3.72;;;24.10;50.40;;;;;;6095414;23;20010;-72
2021/06/22 00:32:47;;;;;;;13.48;3.85;;;24.00;50.40;;;;;;6095080;23;20014;-72
2021/06/22 00:35:14;;;;;;;17.40;3.47;;;24.10;50.70;;;;;;6095354;23;20070;-72
2021/06/22 00:37:42;;;;;;;15.57;4.43;;;24.10;50.70;;;;;;6071215;23;20013;-72
2021/06/22 00:40:10;;;;;;;18.42;5.07;;;24.00;50.80;;;;;;6095257;23;20064;-72
2021/06/22 00:42:37;;;;;;;12.25;4.00;;;24.00;50.90;;;;;;6096524;23;20010;-72
2021/06/22 00:45:04;;;;;;;19.48;6.18;;;24.00;51.00;;;;;;6095177;23;20356;-72
2021/06/22 00:47:31;;;;;;;16.80;3.70;;;24.00;51.00;;;;;;6071069;23;20061;-72
2021/06/22 00:49:58;;;;;;;14.52;4.40;;;24.00;51.00;;;;;;6071227;23;20026;-72
2021/06/22 00:52:27;;;;;;;14.80;3.60;;;24.00;50.80;;;;;;6096622;23;20010;-73
2021/06/22 00:54:56;;;;;;;15.73;3.80;;;24.00;50.80;;;;;;6071343;23;20602;-72
2021/06/22 00:57:23;;;;;;;15.65;4.40;;;24.00;50.80;;;;;;6095246;23;20010;-72
2021/06/22 00:59:50;;;;;;;14.63;3.83;;;23.90;51.00;;;;;;6071095;23;20488;-72
2021/06/22 01:02:18;;;;;;;12.15;4.00;;;23.90;50.90;;;;;;6071076;23;20010;-72
2021/06/22 01:04:44;;;;;;;13.15;3.80;;;23.90;50.40;;;;;;6096575;23;20057;-72
2021/06/22 01:07:13;;;;;;;18.40;4.18;;;23.90;50.60;;;;;;6071090;23;20007;-72
2021/06/22 01:09:40;;;;;;;11.35;3.10;;;23.80;51.10;;;;;;6096422;23;20019;-72
2021/06/22 01:12:07;;;;;;;14.40;3.80;;;23.80;50.80;;;;;;6096516;23;20015;-72
2021/06/22 01:14:40;;;;;;;13.05;3.78;;;23.70;51.30;;;;;;6096504;23;20023;-72
2021/06/22 01:17:06;;;;;;;19.35;3.80;;;23.70;51.50;;;;;;6071172;23;20431;-72
2021/06/22 01:19:34;;;;;;;12.95;3.10;;;23.70;51.60;;;;;;6070954;23;20022;-72
2021/06/22 01:22:01;;;;;;;19.55;4.03;;;23.60;51.60;;;;;;6071349;23;20042;-72
2021/06/22 01:24:27;;;;;;;14.52;3.25;;;23.60;51.20;;;;;;6096587;23;20421;-72
2021/06/22 01:26:58;;;;;;;19.70;4.20;;;23.60;51.80;;;;;;6070950;23;20109;-72
2021/06/22 01:29:26;;;;;;;18.90;4.00;;;23.50;51.70;;;;;;6047059;23;20467;-72
2021/06/22 01:31:54;;;;;;;21.75;4.88;;;23.50;51.70;;;;;;6096933;23;20015;-73
2021/06/22 01:34:40;;;;;;;15.95;4.10;;;23.50;51.70;;;;;;6072919;23;20018;-73
2021/06/22 01:37:09;;;;;;;24.98;4.65;;;23.50;51.50;;;;;;6098442;23;20078;-72
2021/06/22 01:39:36;;;;;;;23.10;4.72;;;23.50;51.70;;;;;;6072533;23;20029;-73
2021/06/22 01:42:02;;;;;;;19.00;3.40;;;23.50;51.80;;;;;;6098339;23;20066;-72
2021/06/22 01:44:32;;;;;;;19.98;3.70;;;23.40;51.40;;;;;;6072791;23;20105;-72
2021/06/22 01:46:59;;;;;;;21.70;4.60;;;23.40;51.90;;;;;;6096826;23;20025;-73
2021/06/22 01:49:25;;;;;;;18.20;4.25;;;23.40;52.10;;;;;;6072574;23;20496;-72
2021/06/22 01:51:51;;;;;;;14.63;3.78;;;23.40;51.90;;;;;;6096793;23;20011;-72
2021/06/22 01:54:18;;;;;;;16.63;4.22;;;23.30;51.50;;;;;;6098241;23;20388;-72
2021/06/22 01:56:50;;;;;;;14.85;4.32;;;23.30;52.20;;;;;;6098141;23;20097;-72
2021/06/22 01:59:16;;;;;;;14.00;4.13;;;23.30;52.20;;;;;;6098054;23;20026;-72
2021/06/22 02:01:43;;;;;;;23.77;3.78;;;23.30;52.50;;;;;;6072621;23;20322;-73
2021/06/22 02:04:11;;;;;;;22.30;3.63;;;23.30;52.40;;;;;;6097093;23;20437;-72
2021/06/22 02:06:38;;;;;;;14.63;4.20;;;23.30;52.40;;;;;;6072639;23;20340;-72
2021/06/22 02:09:05;;;;;;;20.13;4.57;;;23.30;52.30;;;;;;6097979;23;20019;-72
2021/06/22 02:11:31;;;;;;;18.80;4.68;;;23.30;52.30;;;;;;6097997;23;20420;-72
2021/06/22 02:13:58;;;;;;;18.23;3.67;;;23.30;52.30;;;;;;6097949;23;20017;-72
2021/06/22 02:16:25;;;;;;;18.50;4.32;;;23.30;52.10;;;;;;6098049;23;20318;-73
2021/06/22 02:18:52;;;;;;;25.90;4.80;;;23.40;52.20;;;;;;6072556;23;20014;-72
2021/06/22 02:21:18;;;;;;;19.20;4.13;;;23.30;52.30;;;;;;6098471;23;20029;-72
2021/06/22 02:23:44;;;;;;;13.45;3.47;;;23.30;52.50;;;;;;6048449;23;20010;-72
2021/06/22 02:26:10;;;;;;;15.52;3.92;;;23.20;52.90;;;;;;6072594;23;20023;-72
2021/06/22 02:28:36;;;;;;;19.00;4.18;;;23.20;52.90;;;;;;6097681;23;20085;-72
2021/06/22 02:31:03;;;;;;;16.83;3.92;;;23.20;53.10;;;;;;6072339;23;20015;-72
2021/06/22 02:33:29;;;;;;;18.63;3.85;;;23.20;52.90;;;;;;6097857;23;20006;-72
2021/06/22 02:35:56;;;;;;;22.02;5.28;;;23.20;52.90;;;;;;6048484;23;20026;-73
2021/06/22 02:38:23;;;;;;;18.08;3.90;;;23.20;52.80;;;;;;6097769;23;20010;-72
2021/06/22 02:40:49;;;;;;;10.63;3.90;;;23.20;52.20;;;;;;6072449;23;20348;-73
2021/06/22 02:43:16;;;;;;;22.27;4.65;;;23.20;52.80;;;;;;6095662;23;20007;-72
2021/06/22 02:45:43;;;;;;;19.25;4.60;;;23.20;52.70;;;;;;6072232;23;20390;-73
2021/06/22 02:48:10;;;;;;;14.52;3.92;;;23.30;53.10;;;;;;6096145;23;20014;-72
2021/06/22 02:50:39;;;;;;;11.95;4.55;;;23.30;53.20;;;;;;6072264;23;20014;-72
2021/06/22 02:53:07;;;;;;;14.93;4.57;;;23.20;53.00;;;;;;6097685;23;20034;-72
2021/06/22 02:55:34;;;;;;;14.25;3.75;;;23.20;53.10;;;;;;6048216;23;20392;-72
2021/06/22 02:58:01;;;;;;;16.80;4.03;;;23.20;53.10;;;;;;6097587;23;20086;-72
2021/06/22 03:00:30;;;;;;;15.82;4.63;;;23.20;53.20;;;;;;6097393;23;20392;-72
2021/06/22 03:02:58;;;;;;;17.35;4.40;;;23.20;53.30;;;;;;6072146;23;20006;-72
2021/06/22 03:05:24;;;;;;;15.20;3.95;;;23.20;53.30;;;;;;6072221;23;20019;-72
2021/06/22 03:07:51;;;;;;;20.00;4.95;;;23.20;53.30;;;;;;6071987;23;20348;-73
2021/06/22 03:10:20;;;;;;;17.17;4.47;;;23.20;53.40;;;;;;6072099;23;20022;-72
2021/06/22 03:12:46;;;;;;;19.75;4.32;;;23.20;53.30;;;;;;6097354;23;20010;-72
2021/06/22 03:15:18;;;;;;;14.30;4.90;;;23.20;52.90;;;;;;6097619;23;20026;-72
2021/06/22 03:17:45;;;;;;;17.10;3.75;;;23.20;53.50;;;;;;6097448;23;20449;-72
2021/06/22 03:20:12;;;;;;;14.77;3.90;;;23.20;53.60;;;;;;6072070;23;20038;-72
2021/06/22 03:22:39;;;;;;;23.50;5.25;;;23.20;53.80;;;;;;6097172;23;20014;-72
2021/06/22 03:25:09;;;;;;;10.50;3.72;;;23.20;54.10;;;;;;6071893;23;20077;-72
2021/06/22 03:27:36;;;;;;;13.48;3.58;;;23.10;54.30;;;;;;6047836;23;20018;-73
2021/06/22 03:30:05;;;;;;;14.65;4.32;;;23.10;53.90;;;;;;6071957;23;20018;-72
2021/06/22 03:32:32;;;;;;;14.95;5.10;;;23.10;54.50;;;;;;6071512;23;20010;-72
2021/06/22 03:34:58;;;;;;;19.05;3.80;;;23.00;54.50;;;;;;6095921;23;20066;-72
2021/06/22 03:37:25;;;;;;;10.48;4.53;;;23.10;54.80;;;;;;6097069;23;20017;-73
2021/06/22 03:39:51;;;;;;;19.85;4.10;;;23.10;54.80;;;;;;6097140;23;20033;-72
2021/06/22 03:42:17;;;;;;;14.65;4.03;;;23.00;54.70;;;;;;6097156;23;20377;-72
2021/06/22 03:44:44;;;;;;;13.73;3.72;;;23.10;55.10;;;;;;6097136;23;20045;-72
2021/06/22 03:47:11;;;;;;;22.73;4.15;;;23.10;54.60;;;;;;6071640;23;20065;-72
2021/06/22 03:49:37;;;;;;;16.33;4.05;;;23.10;55.10;;;;;;6097046;23;20246;-72
2021/06/22 03:52:04;;;;;;;16.45;4.78;;;23.10;55.40;;;;;;6071490;23;20053;-72
2021/06/22 03:54:30;;;;;;;24.63;5.20;;;23.10;55.40;;;;;;6096927;23;20097;-72
2021/06/22 03:56:57;;;;;;;18.50;5.30;;;23.10;55.60;;;;;;6071683;23;20006;-72
2021/06/22 03:59:23;;;;;;;12.60;4.47;;;23.10;55.60;;;;;;6096956;23;20090;-72
2021/06/22 04:01:49;;;;;;;17.13;4.65;;;23.10;55.70;;;;;;6071537;23;20495;-72
2021/06/22 04:04:16;;;;;;;18.60;4.88;;;23.10;55.80;;;;;;6096968;23;20065;-72
2021/06/22 04:06:42;;;;;;;14.45;4.38;;;23.10;55.90;;;;;;6095417;23;20013;-72
2021/06/22 04:09:08;;;;;;;23.55;4.28;;;23.10;56.00;;;;;;6071436;23;20010;-72
2021/06/22 04:11:34;;;;;;;21.42;4.55;;;23.10;56.20;;;;;;6071514;23;20067;-72
2021/06/22 04:14:01;;;;;;;15.60;4.45;;;23.10;56.20;;;;;;6047383;23;20011;-72
2021/06/22 04:16:27;;;;;;;18.27;4.40;;;23.20;56.20;;;;;;6096912;23;20017;-72
2021/06/22 04:18:56;;;;;;;15.25;4.25;;;23.20;57.10;;;;;;6096744;23;20034;-72
2021/06/22 04:21:22;;;;;;;28.75;4.88;;;23.20;57.40;;;;;;6071296;23;20042;-72
2021/06/22 04:23:48;;;;;;;16.48;4.40;;;23.20;57.30;;;;;;6096822;23;20017;-72
2021/06/22 04:26:16;;;;;;;16.40;4.43;;;23.20;57.40;;;;;;6071754;23;20049;-72
2021/06/22 04:28:43;;;;;;;15.63;4.40;;;23.20;57.50;;;;;;6071014;23;20073;-72
2021/06/22 04:31:09;;;;;;;18.90;5.55;;;23.30;57.40;;;;;;6095140;23;20101;-72
2021/06/22 04:33:36;;;;;;;17.58;5.45;;;23.30;57.50;;;;;;6071176;23;20018;-72
2021/06/22 04:36:02;;;;;;;13.45;5.25;;;23.30;57.70;;;;;;6097101;23;20017;-72
2021/06/22 04:38:28;;;;;;;18.90;4.45;;;23.30;57.60;;;;;;6096723;23;20021;-72
2021/06/22 04:40:54;;;;;;;18.85;5.43;;;23.30;58.90;;;;;;6071323;23;20014;-72
2021/06/22 04:43:22;;;;;;;14.80;4.10;;;23.30;58.20;;;;;;6096558;23;20045;-72
2021/06/22 04:45:48;;;;;;;12.40;3.80;;;23.40;58.00;;;;;;6096904;23;20022;-72
2021/06/22 04:48:14;;;;;;;16.60;4.07;;;23.40;57.70;;;;;;6071077;23;20089;-72
2021/06/22 04:50:40;;;;;;;17.85;3.88;;;23.50;58.50;;;;;;6096839;23;20337;-72
2021/06/22 04:53:07;;;;;;;17.98;4.13;;;23.50;57.50;;;;;;6095136;23;20014;-73
2021/06/22 04:55:33;;;;;;;16.20;4.72;;;23.50;57.40;;;;;;6071100;23;20018;-71
2021/06/22 04:58:00;;;;;;;23.10;5.07;;;23.60;57.30;;;;;;6071033;23;20456;-72
2021/06/22 05:00:28;;;;;;;18.63;5.68;;;23.70;56.90;;;;;;6071067;23;20082;-72
2021/06/22 05:02:55;;;;;;;21.83;6.80;;;23.70;56.90;;;;;;6096471;23;20018;-72
2021/06/22 05:05:21;;;;;;;18.25;5.82;;;23.90;57.40;;;;;;6071018;23;20318;-72
2021/06/22 05:07:47;;;;;;;18.70;4.50;;;23.90;56.90;;;;;;6094628;23;20017;-72
2021/06/22 05:10:14;;;;;;;16.70;4.32;;;24.00;57.20;;;;;;6071168;23;20018;-72
2021/06/22 05:12:42;;;;;;;18.35;5.07;;;24.10;57.00;;;;;;6095080;23;20049;-72
2021/06/22 05:15:10;;;;;;;13.70;4.25;;;24.20;56.50;;;;;;6096994;23;20022;-72
2021/06/22 05:17:36;;;;;;;12.75;4.40;;;24.20;56.00;;;;;;6096611;23;20014;-72
2021/06/22 05:20:05;;;;;;;10.05;4.47;;;24.30;55.40;;;;;;6071100;23;20010;-72
2021/06/22 05:22:32;;;;;;;18.38;5.18;;;24.40;55.80;;;;;;6047032;23;20042;-72
2021/06/22 05:24:58;;;;;;;13.93;5.40;;;24.50;55.60;;;;;;6094945;23;20011;-72
2021/06/22 05:27:24;;;;;;;16.35;5.57;;;24.60;55.60;;;;;;6071062;23;20072;-72
2021/06/22 05:29:51;;;;;;;20.02;7.18;;;24.60;55.60;;;;;;6070634;23;20045;-73
2021/06/22 05:32:17;;;;;;;19.15;6.43;;;24.70;55.10;;;;;;6070820;23;20321;-72
2021/06/22 05:34:45;;;;;;;24.33;5.88;;;24.80;54.70;;;;;;6070766;23;20018;-72
2021/06/22 05:37:11;;;;;;;16.65;5.45;;;24.90;55.10;;;;;;6071064;23;20069;-72
2021/06/22 05:39:38;;;;;;;16.60;4.68;;;25.00;55.60;;;;;;6096354;23;20074;-72
2021/06/22 05:42:04;;;;;;;19.05;5.28;;;25.10;54.50;;;;;;6095005;23;20006;-72
2021/06/22 05:44:31;;;;;;;16.08;4.95;;;25.20;54.50;;;;;;6070815;23;20025;-72
2021/06/22 05:46:57;;;;;;;17.58;4.10;;;25.30;54.60;;;;;;6096406;23;20006;-72
2021/06/22 05:49:23;;;;;;;13.35;4.38;;;25.30;54.60;;;;;;6096338;23;20344;-72
2021/06/22 05:51:51;;;;;;;15.40;4.20;;;25.50;54.40;;;;;;6071017;23;20010;-72
2021/06/22 05:54:18;;;;;;;14.88;4.18;;;25.50;54.00;;;;;;6096295;23;20077;-72
2021/06/22 05:56:44;;;;;;;18.73;4.47;;;25.70;54.30;;;;;;6070858;23;20034;-72
2021/06/22 05:59:10;;;;;;;20.58;4.43;;;25.80;53.60;;;;;;6070946;23;20058;-72
2021/06/22 06:01:36;;;;;;;12.63;4.03;;;25.80;53.50;;;;;;6096201;23;20006;-72
2021/06/22 06:04:03;;;;;;;21.77;4.78;;;26.00;53.50;;;;;;6070709;23;20038;-72
2021/06/22 06:06:29;;;;;;;19.55;4.65;;;26.00;52.40;;;;;;6096377;23;20507;-72
2021/06/22 06:08:55;;;;;;;24.85;5.22;;;26.10;53.00;;;;;;6096052;23;20383;-72
2021/06/22 06:11:21;;;;;;;26.23;5.88;;;26.20;52.60;;;;;;6070791;23;20069;-72
2021/06/22 06:13:48;;;;;;;26.02;5.28;;;26.30;52.50;;;;;;6096303;23;20011;-72
2021/06/22 06:16:14;;;;;;;19.23;4.90;;;26.40;52.10;;;;;;6096736;23;20094;-72
2021/06/22 06:18:40;;;;;;;21.75;6.68;;;26.50;51.80;;;;;;6071913;23;20010;-72
2021/06/22 06:21:07;;;;;;;14.43;4.28;;;26.70;51.60;;;;;;6098493;23;20038;-72
2021/06/22 06:26:20;;;;;;;23.60;4.95;;;26.80;50.00;;;;;;6075907;23;20037;-72
2021/06/22 06:28:50;;;;;;;27.40;7.68;;;26.90;50.30;;;;;;6096873;23;20057;-73
2021/06/22 06:31:17;;;;;;;23.45;5.93;;;27.10;50.60;;;;;;6071765;23;20029;-72
2021/06/22 06:33:44;;;;;;;21.52;6.05;;;27.20;50.00;;;;;;6072424;23;20381;-72
2021/06/22 06:36:10;;;;;;;22.33;7.53;;;27.30;49.80;;;;;;6048538;23;20019;-72
2021/06/22 06:38:36;;;;;;;23.50;5.53;;;27.40;50.20;;;;;;6097680;23;20034;-72
2021/06/22 06:41:03;;;;;;;18.30;5.00;;;27.50;49.70;;;;;;6098169;23;20022;-72
2021/06/22 06:43:29;;;;;;;19.75;5.00;;;27.60;49.30;;;;;;6097776;23;20072;-72
2021/06/22 06:45:56;;;;;;;17.90;4.40;;;27.80;49.00;;;;;;6098007;23;20038;-72
2021/06/22 06:48:24;;;;;;;18.42;4.82;;;27.80;48.40;;;;;;6048142;23;20413;-72
2021/06/22 06:50:50;;;;;;;20.45;6.90;;;27.90;48.50;;;;;;6072785;23;20459;-72
2021/06/22 06:53:17;;;;;;;27.38;6.85;;;28.00;49.10;;;;;;6048220;23;20043;-72
2021/06/22 06:55:45;;;;;;;26.70;6.78;;;28.20;48.90;;;;;;6097875;23;20018;-72
2021/06/22 06:58:11;;;;;;;18.63;5.07;;;28.30;48.60;;;;;;6072126;23;20081;-72
2021/06/22 07:00:39;;;;;;;15.13;6.20;;;28.30;48.30;;;;;;6072100;23;20048;-72
2021/06/22 07:03:07;;;;;;;26.92;5.90;;;28.40;47.90;;;;;;6096169;23;20033;-72
2021/06/22 07:05:34;;;;;;;18.98;6.00;;;28.50;48.10;;;;;;6096123;23;20022;-72
2021/06/22 07:08:01;;;;;;;28.60;5.30;;;28.60;47.60;;;;;;6071991;23;20011;-72
2021/06/22 07:10:29;;;;;;;16.13;4.47;;;28.70;47.70;;;;;;6072187;23;20022;-72
2021/06/22 07:12:58;;;;;;;15.73;5.00;;;28.80;47.30;;;;;;6071969;23;20010;-72
2021/06/22 07:15:25;;;;;;;19.05;5.00;;;28.90;47.50;;;;;;6096005;23;20022;-72
2021/06/22 07:17:52;;;;;;;15.27;4.32;;;28.90;46.40;;;;;;6071737;23;20018;-72
2021/06/22 07:20:18;;;;;;;17.05;5.20;;;29.10;48.00;;;;;;6072162;23;20495;-72
2021/06/22 07:22:45;;;;;;;23.50;5.32;;;29.20;47.70;;;;;;6095878;23;20445;-72
2021/06/22 07:25:12;;;;;;;12.40;4.03;;;29.20;46.90;;;;;;6095889;23;20042;-72
2021/06/22 07:27:39;;;;;;;18.63;4.97;;;29.20;46.90;;;;;;6095831;23;20019;-72
2021/06/22 07:30:06;;;;;;;19.58;5.30;;;29.30;46.10;;;;;;6096984;23;20019;-72
2021/06/22 07:32:32;;;;;;;25.50;5.65;;;29.40;46.30;;;;;;6071718;23;20438;-72
2021/06/22 07:34:58;;;;;;;17.08;5.85;;;29.50;46.00;;;;;;6071787;23;20326;-72
2021/06/22 07:37:24;;;;;;;18.02;5.95;;;29.50;46.10;;;;;;6071823;23;20010;-72
2021/06/22 07:39:51;;;;;;;17.05;4.95;;;29.60;46.40;;;;;;6097228;23;20038;-72
2021/06/22 07:42:17;;;;;;;21.65;5.40;;;29.70;46.50;;;;;;6095683;23;20029;-72
2021/06/22 07:44:43;;;;;;;17.17;4.72;;;29.80;45.90;;;;;;6095567;23;20539;-72
2021/06/22 07:47:10;;;;;;;21.65;7.05;;;29.80;44.70;;;;;;6097168;23;20015;-72
2021/06/22 07:49:36;;;;;;;25.98;5.63;;;29.80;45.00;;;;;;6097018;23;20045;-72
2021/06/22 07:52:03;;;;;;;12.73;4.07;;;29.90;44.60;;;;;;6097124;23;20021;-72
2021/06/22 07:54:29;;;;;;;24.40;4.93;;;29.90;44.50;;;;;;6095550;23;20531;-72
2021/06/22 07:56:55;;;;;;;23.20;5.90;;;30.10;45.50;;;;;;6096964;23;20344;-72
2021/06/22 07:59:21;;;;;;;22.10;6.43;;;30.10;44.40;;;;;;6097043;23;20344;-72
2021/06/22 08:01:48;;;;;;;18.98;5.38;;;30.10;45.30;;;;;;6071446;23;20391;-72
2021/06/22 08:04:14;;;;;;;15.23;5.93;;;30.30;46.50;;;;;;6095241;23;20017;-72
2021/06/22 08:06:40;;;;;;;19.10;5.38;;;30.50;45.90;;;;;;6071517;23;20373;-72
2021/06/22 08:09:06;;;;;;;18.15;5.20;;;30.50;44.80;;;;;;6096766;23;20392;-72
2021/06/22 08:11:32;;;;;;;21.77;5.97;;;30.60;44.30;;;;;;6096815;23;20112;-72
2021/06/22 08:13:59;;;;;;;21.83;6.00;;;30.60;44.80;;;;;;6071472;23;20069;-72
2021/06/22 08:16:25;;;;;;;17.88;4.72;;;30.70;45.00;;;;;;6071284;23;20090;-72
2021/06/22 08:18:51;;;;;;;25.48;5.50;;;30.70;44.30;;;;;;6096665;23;20011;-72
2021/06/22 08:21:18;;;;;;;19.23;5.40;;;30.80;44.30;;;;;;6097355;23;20444;-72
2021/06/22 08:23:44;;;;;;;18.98;5.10;;;30.80;43.80;;;;;;6096613;23;20085;-72
2021/06/22 08:26:11;;;;;;;20.20;4.63;;;30.90;44.40;;;;;;6097307;23;20341;-72
2021/06/22 08:28:38;;;;;;;20.00;4.32;;;31.00;43.80;;;;;;6095566;23;20440;-72
2021/06/22 08:31:05;;;;;;;20.60;5.45;;;31.10;43.70;;;;;;6070980;23;20097;-73
2021/06/22 08:33:31;;;;;;;16.83;5.00;;;31.20;43.70;;;;;;6096812;23;20007;-72
2021/06/22 08:35:57;;;;;;;17.83;4.97;;;31.20;43.70;;;;;;6095430;23;20046;-72
2021/06/22 08:38:24;;;;;;;14.93;5.57;;;31.40;44.00;;;;;;6096790;23;20010;-72
2021/06/22 08:40:50;;;;;;;19.30;5.13;;;31.50;44.30;;;;;;6095258;23;20018;-72
2021/06/22 08:43:18;;;;;;;25.75;4.88;;;31.60;42.70;;;;;;6071059;23;20041;-72
2021/06/22 08:45:45;;;;;;;20.58;4.68;;;31.60;42.70;;;;;;6071332;23;20398;-72
2021/06/22 08:48:12;;;;;;;19.90;5.53;;;31.60;41.50;;;;;;6071146;23;20011;-72
2021/06/22 08:50:58;;;;;;;21.90;5.40;;;31.60;41.00;;;;;;6096966;23;20077;-72
2021/06/22 08:53:25;;;;;;;22.63;5.22;;;31.50;40.80;;;;;;6071355;23;20013;-72
2021/06/22 08:55:51;;;;;;;11.77;4.00;;;31.60;39.80;;;;;;6047266;23;20022;-72
2021/06/22 08:58:18;;;;;;;18.25;5.32;;;31.60;40.30;;;;;;6071012;23;20089;-72
2021/06/22 09:01:04;;;;;;;17.65;4.70;;;31.60;40.00;;;;;;6070990;23;20026;-72
2021/06/22 09:03:32;;;;;;;17.60;4.75;;;31.70;40.50;;;;;;6096648;23;20011;-72
2021/06/22 09:09:07;;;;;;;20.75;4.90;;;31.90;40.00;;;;;;6073987;23;20400;-72
2021/06/22 09:11:33;;;;;;;15.85;4.72;;;31.90;40.20;;;;;;6094966;23;20022;-72
2021/06/22 09:14:04;;;;;;;17.58;4.88;;;32.20;40.00;;;;;;6071047;23;20041;-73
2021/06/22 09:16:32;;;;;;;19.80;4.65;;;32.20;40.00;;;;;;6071124;23;20038;-72
2021/06/22 09:19:24;;;;;;;24.98;5.07;;;32.40;39.70;;;;;;6096414;23;20078;-73
2021/06/22 09:21:51;;;;;;;14.85;4.45;;;32.50;38.60;;;;;;6096454;23;20014;-72
2021/06/22 09:24:36;;;;;;;13.00;4.25;;;32.60;38.80;;;;;;6070935;23;20014;-72
2021/06/22 09:27:03;;;;;;;21.05;5.28;;;32.70;38.90;;;;;;6096496;23;20014;-72
2021/06/22 09:29:29;;;;;;;21.98;5.47;;;32.80;37.90;;;;;;6046911;23;20105;-72
2021/06/22 09:32:28;;;;;;;15.20;5.05;;;32.80;37.60;;;;;;6094700;23;20066;-72
2021/06/22 09:35:27;;;;;;;20.58;5.20;;;32.80;37.50;;;;;;6096264;23;20055;-72
2021/06/22 09:37:54;;;;;;;15.25;4.55;;;33.00;37.80;;;;;;6096483;23;20317;-72
2021/06/22 09:40:39;;;;;;;18.73;6.03;;;33.20;36.30;;;;;;6096709;23;20023;-72
2021/06/22 09:43:06;;;;;;;18.17;4.87;;;33.40;36.40;;;;;;6094956;23;20014;-72
2021/06/22 09:45:33;;;;;;;17.27;4.72;;;33.70;35.50;;;;;;6070942;23;20037;-72
2021/06/22 09:48:02;;;;;;;20.92;4.53;;;33.90;35.00;;;;;;6046952;23;20017;-72
2021/06/22 09:50:48;;;;;;;21.27;5.53;;;34.30;34.70;;;;;;6096666;23;20018;-72
2021/06/22 09:53:35;;;;;;;15.73;4.40;;;34.80;34.80;;;;;;6095830;23;20380;-72
2021/06/22 09:56:01;;;;;;;;;;;35.60;33.60;;;;;;6097542;23;20022;-72
2021/06/22 09:58:46;;;;;;;21.83;5.47;;;36.10;32.00;;;;;;6098690;23;19916;-73
2021/06/22 10:01:34;;;;;;;19.38;5.18;;;36.80;31.70;;;;;;6072953;23;20024;-72
2021/06/22 10:04:40;;;;;;;19.10;5.15;;;37.20;30.50;;;;;;6072700;23;20058;-73
2021/06/22 10:07:12;;;;;;;14.30;5.13;;;37.60;30.00;;;;;;6072679;23;20021;-72
2021/06/22 10:09:40;;;;;;;15.65;4.10;;;37.90;29.40;;;;;;6098090;23;20086;-72
2021/06/22 10:12:15;;;;;;;17.25;5.03;;;38.30;29.50;;;;;;6072682;23;20021;-72
2021/06/22 10:15:02;;;;;;;19.70;4.68;;;38.60;29.00;;;;;;6072622;23;20097;-72
2021/06/22 10:17:31;;;;;;;17.67;5.45;;;38.90;27.60;;;;;;6096498;23;20033;-72
2021/06/22 10:20:02;;;;;;;23.17;6.05;;;39.20;27.50;;;;;;6072437;23;20069;-72
2021/06/22 10:22:32;;;;;;;29.80;5.65;;;39.60;27.80;;;;;;6048512;23;20344;-72
2021/06/22 10:25:00;;;;;;;15.23;4.57;;;40.30;26.50;;;;;;6072677;23;20389;-72
2021/06/22 10:27:29;;;;;;;14.77;3.83;;;40.60;26.30;;;;;;6072479;23;20384;-72
2021/06/22 10:30:19;;;;;;;23.30;5.25;;;40.90;24.90;;;;;;6096244;23;20018;-72
2021/06/22 10:32:46;;;;;;;19.10;4.68;;;41.10;26.20;;;;;;6096202;23;20025;-72
2021/06/22 10:35:32;;;;;;;24.73;7.35;;;41.40;24.40;;;;;;6072123;23;20102;-72
2021/06/22 10:40:46;;;;;;;17.60;5.05;;;42.00;23.50;;;;;;6096634;23;20024;-72
2021/06/22 10:43:12;;;;;;;14.20;4.70;;;42.00;24.20;;;;;;6072898;23;20045;-73
2021/06/22 10:46:03;;;;;;;16.92;5.10;;;42.10;24.40;;;;;;6072258;23;20093;-73
2021/06/22 10:48:57;;;;;;;14.57;5.10;;;42.20;24.30;;;;;;6097702;23;20022;-72
2021/06/22 10:51:45;;;;;;;17.48;4.60;;;42.50;23.90;;;;;;6097786;23;20267;-72
2021/06/22 10:54:50;;;;;;;16.33;5.25;;;43.50;23.40;;;;;;6096251;23;20078;-73
2021/06/22 10:57:17;;;;;;;14.27;4.65;;;44.00;23.10;;;;;;6097714;23;20341;-73
2021/06/22 11:00:03;;;;;;;16.88;4.47;;;44.20;22.60;;;;;;6072383;23;20049;-72
2021/06/22 11:03:11;;;;;;;22.13;5.45;;;44.80;22.60;;;;;;6072289;23;20018;-73
2021/06/22 11:05:41;;;;;;;15.00;4.80;;;44.80;21.60;;;;;;6047444;23;20057;-73
2021/06/22 11:08:25;;;;;;;22.10;5.00;;;45.20;20.70;;;;;;6072177;23;20380;-73
2021/06/22 11:11:10;;;;;;;15.90;5.50;;;45.60;21.10;;;;;;6097828;23;20487;-73
2021/06/22 11:13:57;;;;;;;19.73;4.82;;;46.30;20.90;;;;;;6097406;23;20020;-73
2021/06/22 11:16:46;;;;;;;22.25;5.40;;;46.30;20.20;;;;;;6072279;23;20255;-73
2021/06/22 11:19:13;;;;;;;16.02;4.40;;;46.80;19.50;;;;;;6097421;23;20010;-73
2021/06/22 11:21:58;;;;;;;16.73;5.32;;;47.30;19.10;;;;;;6071926;23;20020;-72
2021/06/22 11:24:29;;;;;;;22.05;5.53;;;47.50;19.50;;;;;;6095897;23;20433;-73
2021/06/22 11:27:00;;;;;;;13.02;5.43;;;47.70;18.30;;;;;;6095951;23;20007;-73
2021/06/22 11:29:46;;;;;;;24.60;5.70;;;47.80;19.10;;;;;;6072314;23;20046;-73
2021/06/22 11:32:32;;;;;;;14.02;5.00;;;48.00;19.30;;;;;;6095672;23;20452;-73
2021/06/22 11:34:58;;;;;;;18.90;4.63;;;48.30;18.50;;;;;;6095826;23;20015;-73
2021/06/22 11:37:26;;;;;;;14.98;4.97;;;47.90;17.80;;;;;;6047729;23;20444;-73
2021/06/22 11:40:30;;;;;;;18.80;5.10;;;47.80;17.90;;;;;;6095656;23;20025;-73
2021/06/22 11:43:08;;;;;;;19.02;4.85;;;48.10;18.20;;;;;;6097204;23;20447;-73
2021/06/22 11:45:34;;;;;;;17.23;5.10;;;48.10;18.30;;;;;;6071639;23;20053;-73
2021/06/22 11:48:04;;;;;;;12.75;4.43;;;48.70;17.70;;;;;;6071731;23;20061;-73
2021/06/22 11:50:33;;;;;;;20.52;5.28;;;48.70;16.70;;;;;;6097354;23;20018;-73
2021/06/22 11:53:23;;;;;;;13.70;4.80;;;48.10;17.60;;;;;;6071742;23;20041;-73
2021/06/22 11:55:53;;;;;;;17.00;4.93;;;48.20;17.40;;;;;;6096802;23;20018;-72
2021/06/22 11:58:22;;;;;;;11.15;4.38;;;48.10;16.90;;;;;;6047648;23;20015;-73
2021/06/22 12:00:49;;;;;;;15.18;5.10;;;48.50;17.90;;;;;;6095708;23;20057;-72
2021/06/22 12:03:15;;;;;;;12.00;4.30;;;48.80;17.10;;;;;;6071398;23;20452;-73
2021/06/22 12:05:42;;;;;;;16.83;6.03;;;48.20;16.80;;;;;;6071365;23;20026;-73
2021/06/22 12:08:28;;;;;;;13.38;5.70;;;48.00;17.70;;;;;;6071260;23;20060;-73
2021/06/22 12:10:55;;;;;;;14.20;5.22;;;48.10;18.00;;;;;;6095695;23;20089;-73
2021/06/22 12:13:42;;;;;;;19.48;5.55;;;48.20;17.50;;;;;;6071518;23;20101;-72
2021/06/22 12:16:28;;;;;;;14.07;4.80;;;48.80;17.90;;;;;;6071589;23;20089;-73
2021/06/22 12:18:58;;;;;;;22.25;5.30;;;49.20;17.80;;;;;;6047461;23;20014;-72
2021/06/22 12:21:27;;;;;;;19.42;5.15;;;48.00;18.30;;;;;;6095347;23;20046;-72
2021/06/22 12:24:20;;;;;;;15.23;5.57;;;48.80;17.80;;;;;;6071391;23;20449;-72
2021/06/22 12:27:07;;;;;;;15.23;5.05;;;49.20;17.80;;;;;;6071339;23;20018;-72
2021/06/22 12:29:34;;;;;;;25.40;6.38;;;48.70;16.60;;;;;;6096828;23;20339;-73
2021/06/22 12:32:21;;;;;;;11.98;4.20;;;48.80;16.70;;;;;;6071141;23;20170;-72
2021/06/22 12:34:48;;;;;;;22.55;7.07;;;49.00;16.50;;;;;;6097124;23;20018;-73
2021/06/22 12:37:33;;;;;;;15.02;4.35;;;48.10;17.30;;;;;;6071253;23;20030;-72
2021/06/22 12:39:59;;;;;;;14.15;5.00;;;47.50;16.60;;;;;;6071312;23;20020;-73
2021/06/22 12:42:27;;;;;;;17.38;4.78;;;47.60;17.50;;;;;;6047229;23;20010;-72
2021/06/22 12:44:54;;;;;;;17.88;4.80;;;47.60;18.00;;;;;;6096484;23;20440;-72
2021/06/22 12:47:20;;;;;;;18.33;5.03;;;47.80;17.90;;;;;;6096640;23;20068;-72
2021/06/22 12:49:46;;;;;;;20.73;4.43;;;47.90;17.10;;;;;;6096509;23;20021;-72
2021/06/22 12:52:16;;;;;;;15.63;4.95;;;47.80;17.40;;;;;;6071279;23;20089;-72
2021/06/22 12:54:44;;;;;;;13.68;4.25;;;47.60;17.70;;;;;;6071752;23;20429;-72
2021/06/22 12:57:30;;;;;;;13.38;4.90;;;46.80;18.20;;;;;;6047248;23;20018;-72
2021/06/22 12:59:56;;;;;;;17.60;5.03;;;45.90;19.00;;;;;;6071430;23;20010;-72